Airport View

Enter AWOS ICAO identifier for current METAR.

ex. KFNL

KMUI 191756Z VRB04KT 10SM BKN017 BKN070 BKN150 26/22 A2979 RMK AO2A SLP087 T02620220

19 Jun 2019 18:53

Frequency: 124.175

Phone: 717-861-6493

Other Area AWOS: KMDT - KCXY - KLNS - KSEG

TAF AMD KMUI 191550Z 1915/2017 15006KT 6000 -SHRA BR OVC013 QNH2974INS BECMG 1916/1917 15006KT 6000 -SHRA BR SCT008 OVC016 QNH2965INS TEMPO 1917/2001 VRB10G20KT 4800 -TSRA BKN010CB BECMG 2002/2003 VRB06KT 4800 -SHRA BR SCT003 BKN005 OVC010 QNH2965INS TEMPO 2014/2017 24020G30KT -TSRA OVC003CB TX26/1917Z TN20/2011Z